createdAt,value
2017-07-10T00:02:13.978Z,1004.4
2017-07-10T00:04:45.702Z,1004.4
2017-07-10T00:07:17.451Z,1004.4
2017-07-10T00:09:49.152Z,1004.3
2017-07-10T00:12:21.018Z,1004.3
2017-07-10T00:14:52.744Z,1004.3
2017-07-10T00:17:24.466Z,1004.3
2017-07-10T00:19:56.180Z,1004.2
2017-07-10T00:22:27.905Z,1004.2
2017-07-10T00:24:59.603Z,1004.2
2017-07-10T00:27:31.359Z,1004.2
2017-07-10T00:30:03.057Z,1004.3
2017-07-10T00:32:34.784Z,1004.2
2017-07-10T00:35:06.479Z,1004.3
2017-07-10T00:37:38.206Z,1004.2
2017-07-10T00:40:09.926Z,1004.2
2017-07-10T00:42:41.687Z,1004.2
2017-07-10T00:45:13.410Z,1004.2
2017-07-10T00:47:45.155Z,1004.2
2017-07-10T00:50:16.881Z,1004.1
2017-07-10T00:52:48.614Z,1004.1
2017-07-10T00:55:20.357Z,1004.0
2017-07-10T00:57:52.283Z,1004.0
2017-07-10T01:00:24.018Z,1003.9
2017-07-10T01:02:55.771Z,1003.9
2017-07-10T01:05:27.496Z,1003.9
2017-07-10T01:07:59.221Z,1003.9
2017-07-10T01:10:30.920Z,1003.9
2017-07-10T01:13:02.651Z,1003.9
2017-07-10T01:15:34.347Z,1003.8
2017-07-10T01:18:06.075Z,1003.8
2017-07-10T01:20:37.767Z,1003.7
2017-07-10T01:23:09.519Z,1003.6
2017-07-10T01:25:41.240Z,1003.6
2017-07-10T01:28:12.986Z,1003.6
2017-07-10T01:30:44.701Z,1003.7
2017-07-10T01:33:16.465Z,1003.7
2017-07-10T01:35:48.183Z,1003.8
2017-07-10T01:38:19.966Z,1003.9
2017-07-10T01:40:51.809Z,1003.9
2017-07-10T01:43:23.666Z,1003.9
2017-07-10T01:45:55.379Z,1003.8
2017-07-10T01:48:27.145Z,1003.7
2017-07-10T01:50:58.861Z,1003.7
2017-07-10T01:53:30.585Z,1003.7
2017-07-10T01:56:02.295Z,1003.8
2017-07-10T01:58:34.018Z,1003.9
2017-07-10T02:01:05.713Z,1003.9
2017-07-10T02:03:37.446Z,1003.8
2017-07-10T02:06:09.145Z,1003.8
2017-07-10T02:08:40.956Z,1003.8
2017-07-10T02:11:12.673Z,1003.8
2017-07-10T02:13:44.444Z,1003.9
2017-07-10T02:16:16.187Z,1003.9
2017-07-10T02:18:47.931Z,1003.8
2017-07-10T02:21:19.651Z,1003.8
2017-07-10T02:23:51.473Z,1003.8
2017-07-10T02:26:23.347Z,1003.7
2017-07-10T02:28:55.164Z,1003.8
2017-07-10T02:31:26.883Z,1003.7
2017-07-10T02:33:58.627Z,1003.7
2017-07-10T02:36:30.384Z,1003.6
2017-07-10T02:39:02.144Z,1003.6
2017-07-10T02:41:33.855Z,1003.5
2017-07-10T02:44:05.611Z,1003.5
2017-07-10T02:46:37.339Z,1003.4
2017-07-10T02:49:09.087Z,1003.4
2017-07-10T02:51:40.807Z,1003.4
2017-07-10T02:54:12.540Z,1003.4
2017-07-10T02:56:44.296Z,1003.3
2017-07-10T02:59:16.029Z,1003.2
2017-07-10T03:01:47.729Z,1003.1
2017-07-10T03:04:19.456Z,1003.1
2017-07-10T03:06:51.150Z,1003.0
2017-07-10T03:09:23.036Z,1003.0
2017-07-10T03:11:54.873Z,1003.0
2017-07-10T03:14:26.654Z,1002.9
2017-07-10T03:16:58.405Z,1002.8
2017-07-10T03:19:30.152Z,1002.8
2017-07-10T03:22:01.928Z,1002.8
2017-07-10T03:24:33.685Z,1002.8
2017-07-10T03:27:05.454Z,1002.8
2017-07-10T03:29:37.244Z,1002.7
2017-07-10T03:32:08.978Z,1002.7
2017-07-10T03:34:40.765Z,1002.7
2017-07-10T03:37:12.481Z,1002.7
2017-07-10T03:39:44.253Z,1002.6
2017-07-10T03:42:15.982Z,1002.6
2017-07-10T03:44:47.788Z,1002.6
2017-07-10T03:47:19.513Z,1002.7
2017-07-10T03:49:51.272Z,1002.7
2017-07-10T03:52:23.809Z,1002.8
2017-07-10T03:54:55.662Z,1002.8
2017-07-10T03:57:27.325Z,1002.8
2017-07-10T03:59:59.091Z,1002.8
2017-07-10T04:02:31.044Z,1002.8
2017-07-10T04:05:02.844Z,1002.8
2017-07-10T04:07:34.639Z,1002.8
2017-07-10T04:10:06.471Z,1002.9
2017-07-10T04:12:38.339Z,1002.9
2017-07-10T04:15:10.123Z,1002.9
2017-07-10T04:17:41.865Z,1003.0
2017-07-10T04:20:13.639Z,1003.0
2017-07-10T04:22:45.467Z,1003.1
2017-07-10T04:25:17.228Z,1003.1
2017-07-10T04:27:48.953Z,1003.2
2017-07-10T04:30:20.706Z,1003.2
2017-07-10T04:32:52.491Z,1003.1
2017-07-10T04:35:24.393Z,1003.1
2017-07-10T04:37:56.126Z,1003.1
2017-07-10T04:40:27.852Z,1003.2
2017-07-10T04:42:59.558Z,1003.2
2017-07-10T04:45:31.319Z,1003.2
2017-07-10T04:48:03.015Z,1003.2
2017-07-10T04:50:34.744Z,1003.2
2017-07-10T04:53:06.523Z,1003.2
2017-07-10T04:55:38.287Z,1003.1
2017-07-10T04:58:10.112Z,1003.1
2017-07-10T05:00:41.897Z,1003.1
2017-07-10T05:03:13.620Z,1003.1
2017-07-10T05:05:45.452Z,1003.1
2017-07-10T05:08:17.243Z,1003.1
2017-07-10T05:10:49.161Z,1003.1
2017-07-10T05:13:20.887Z,1003.2
2017-07-10T05:15:52.658Z,1003.2
2017-07-10T05:18:24.438Z,1003.2
2017-07-10T05:20:56.259Z,1003.2
2017-07-10T05:23:28.013Z,1003.2
2017-07-10T05:25:59.770Z,1003.2
2017-07-10T05:28:31.522Z,1003.3
2017-07-10T05:31:03.267Z,1003.3
2017-07-10T05:33:35.005Z,1003.3
2017-07-10T05:36:06.795Z,1003.3
2017-07-10T05:38:38.552Z,1003.3
2017-07-10T05:41:10.351Z,1003.3
2017-07-10T05:43:42.077Z,1003.3
2017-07-10T05:46:13.882Z,1003.3
2017-07-10T05:48:45.595Z,1003.3
2017-07-10T05:51:17.353Z,1003.2
2017-07-10T05:53:49.121Z,1003.2
2017-07-10T05:56:20.862Z,1003.1
2017-07-10T05:58:52.565Z,1003.2
2017-07-10T06:01:24.455Z,1003.3
2017-07-10T06:03:56.156Z,1003.2
2017-07-10T06:06:27.943Z,1003.2
2017-07-10T06:08:59.690Z,1003.1
2017-07-10T06:11:31.607Z,1003.1
2017-07-10T06:14:03.329Z,1003.2
2017-07-10T06:16:35.097Z,1003.2
2017-07-10T06:19:06.838Z,1003.2
2017-07-10T06:21:38.574Z,1003.2
2017-07-10T06:24:10.350Z,1003.1
2017-07-10T06:26:42.236Z,1003.2
2017-07-10T06:29:13.988Z,1003.1
2017-07-10T06:31:45.770Z,1003.1
2017-07-10T06:34:17.498Z,1003.1
2017-07-10T06:36:49.283Z,1003.1
2017-07-10T06:39:21.035Z,1003.1
2017-07-10T06:41:52.796Z,1003.1
2017-07-10T06:44:24.518Z,1003.1
2017-07-10T06:46:56.265Z,1003.1
2017-07-10T06:49:28.064Z,1003.1
2017-07-10T06:51:59.847Z,1003.1
2017-07-10T06:54:31.549Z,1003.0
2017-07-10T06:57:03.337Z,1003.0
2017-07-10T06:59:35.032Z,1003.1
2017-07-10T07:02:06.759Z,1003.1
2017-07-10T07:04:38.524Z,1003.0
2017-07-10T07:07:10.265Z,1003.0
2017-07-10T07:09:41.981Z,1003.0
2017-07-10T07:12:13.771Z,1003.1
2017-07-10T07:14:45.519Z,1003.1
2017-07-10T07:17:17.278Z,1003.0
2017-07-10T07:19:49.030Z,1003.0
2017-07-10T07:22:20.822Z,1003.0
2017-07-10T07:24:52.575Z,1003.0
2017-07-10T07:27:24.354Z,1002.9
2017-07-10T07:29:56.224Z,1003.0
2017-07-10T07:32:28.043Z,1003.0
2017-07-10T07:34:59.815Z,1003.0
2017-07-10T07:37:31.703Z,1003.0
2017-07-10T07:40:03.494Z,1003.0
2017-07-10T07:42:35.256Z,1003.0
2017-07-10T07:45:06.991Z,1003.0
2017-07-10T07:47:38.770Z,1003.1
2017-07-10T07:50:10.485Z,1003.1
2017-07-10T07:52:42.259Z,1003.1
2017-07-10T07:55:14.077Z,1003.0
2017-07-10T07:57:45.870Z,1003.0
2017-07-10T08:00:17.644Z,1003.0
2017-07-10T08:02:49.455Z,1003.0
2017-07-10T08:05:21.217Z,1003.0
2017-07-10T08:07:52.988Z,1003.0
2017-07-10T08:10:24.743Z,1002.9
2017-07-10T08:12:56.539Z,1002.9
2017-07-10T08:15:28.280Z,1002.9
2017-07-10T08:18:00.101Z,1002.9
2017-07-10T08:20:31.859Z,1002.9
2017-07-10T08:23:03.650Z,1002.9
2017-07-10T08:25:35.369Z,1002.8
2017-07-10T08:28:07.123Z,1002.8
2017-07-10T08:30:38.872Z,1002.8
2017-07-10T08:33:10.642Z,1002.8
2017-07-10T08:35:42.373Z,1002.8
2017-07-10T08:38:14.131Z,1002.8
2017-07-10T08:40:45.872Z,1002.8
2017-07-10T08:43:17.648Z,1002.7
2017-07-10T08:45:49.384Z,1002.6
2017-07-10T08:48:21.186Z,1002.7
2017-07-10T08:50:52.900Z,1002.7
2017-07-10T08:53:24.683Z,1002.8
2017-07-10T08:55:56.441Z,1002.8
2017-07-10T08:58:28.258Z,1002.8
2017-07-10T09:01:00.019Z,1002.8
2017-07-10T09:03:31.798Z,1002.8
2017-07-10T09:06:03.559Z,1002.8
2017-07-10T09:08:35.340Z,1002.7
2017-07-10T09:11:07.071Z,1002.8
2017-07-10T09:13:38.878Z,1002.7
2017-07-10T09:16:10.629Z,1002.7
2017-07-10T09:18:42.407Z,1002.8
2017-07-10T09:21:14.145Z,1002.9
2017-07-10T09:23:45.931Z,1002.9
2017-07-10T09:26:17.667Z,1002.9
2017-07-10T09:28:49.424Z,1002.9
2017-07-10T09:31:21.163Z,1002.9
2017-07-10T09:33:52.927Z,1002.9
2017-07-10T09:36:24.665Z,1002.9
2017-07-10T09:38:56.467Z,1002.8
2017-07-10T09:41:28.210Z,1002.8
2017-07-10T09:43:59.985Z,1002.9
2017-07-10T09:46:31.715Z,1002.9
2017-07-10T09:49:03.507Z,1002.9
2017-07-10T09:51:35.246Z,1002.9
2017-07-10T09:54:07.008Z,1002.9
2017-07-10T09:56:38.813Z,1002.9
2017-07-10T09:59:10.565Z,1002.9
2017-07-10T10:01:42.298Z,1002.9
2017-07-10T10:04:14.082Z,1002.9
2017-07-10T10:06:45.872Z,1002.9
2017-07-10T10:09:17.659Z,1003.0
2017-07-10T10:11:49.407Z,1002.9
2017-07-10T10:14:21.189Z,1002.9
2017-07-10T10:16:52.943Z,1002.8
2017-07-10T10:19:24.718Z,1002.8
2017-07-10T10:21:56.444Z,1002.8
2017-07-10T10:24:28.246Z,1002.7
2017-07-10T10:26:59.989Z,1002.7
2017-07-10T10:29:31.766Z,1002.7
2017-07-10T10:32:03.541Z,1002.7
2017-07-10T10:34:35.313Z,1002.7
2017-07-10T10:37:07.081Z,1002.7
2017-07-10T10:39:38.858Z,1002.7
2017-07-10T10:42:10.591Z,1002.7
2017-07-10T10:44:42.381Z,1002.7
2017-07-10T10:47:14.139Z,1002.7
2017-07-10T10:49:45.946Z,1002.7
2017-07-10T10:52:17.693Z,1002.8
2017-07-10T10:54:49.465Z,1002.7
2017-07-10T10:57:21.225Z,1002.7
2017-07-10T10:59:53.031Z,1002.7
2017-07-10T11:02:24.930Z,1002.7
2017-07-10T11:04:56.713Z,1002.7
2017-07-10T11:07:28.442Z,1002.7
2017-07-10T11:10:00.281Z,1002.7
2017-07-10T11:12:32.574Z,1002.7
2017-07-10T11:15:04.364Z,1002.7
2017-07-10T11:17:36.118Z,1002.7
2017-07-10T11:20:07.889Z,1002.7
2017-07-10T11:22:39.645Z,1002.6
2017-07-10T11:25:11.436Z,1002.7
2017-07-10T11:27:43.306Z,1002.7
2017-07-10T11:30:15.104Z,1002.6
2017-07-10T11:32:48.480Z,1002.6
2017-07-10T11:35:20.300Z,1002.6
2017-07-10T11:37:52.098Z,1002.6
2017-07-10T11:40:23.851Z,1002.5
2017-07-10T11:42:55.585Z,1002.5
2017-07-10T11:45:27.384Z,1002.5
2017-07-10T11:47:59.087Z,1002.5
2017-07-10T11:50:30.880Z,1002.4
2017-07-10T11:53:02.638Z,1002.4
2017-07-10T11:55:34.546Z,1002.5
2017-07-10T11:58:06.267Z,1002.5
2017-07-10T12:00:38.055Z,1002.3
2017-07-10T12:03:09.795Z,1002.3
2017-07-10T12:05:41.583Z,1002.2
2017-07-10T12:08:13.316Z,1002.3
2017-07-10T12:10:45.184Z,1002.3
2017-07-10T12:13:16.881Z,1002.3
2017-07-10T12:15:48.682Z,1002.2
2017-07-10T12:18:20.398Z,1002.2
2017-07-10T12:20:52.206Z,1002.2
2017-07-10T12:23:23.961Z,1002.2
2017-07-10T12:25:55.783Z,1002.0
2017-07-10T12:28:27.540Z,1002.0
2017-07-10T12:30:59.322Z,1002.0
2017-07-10T12:33:31.110Z,1002.0
2017-07-10T12:36:02.881Z,1002.0
2017-07-10T12:38:34.636Z,1002.1
2017-07-10T12:41:06.464Z,1002.0
2017-07-10T12:43:38.899Z,1001.9
2017-07-10T12:46:10.664Z,1002.0
2017-07-10T12:48:42.488Z,1002.0
2017-07-10T12:51:14.301Z,1002.0
2017-07-10T12:53:46.003Z,1002.0
2017-07-10T12:56:17.828Z,1002.0
2017-07-10T12:58:49.628Z,1002.0
2017-07-10T13:01:21.423Z,1001.9
2017-07-10T13:03:53.266Z,1002.0
2017-07-10T13:06:25.047Z,1002.1
2017-07-10T13:08:56.782Z,1002.0
2017-07-10T13:11:28.635Z,1001.9
2017-07-10T13:14:00.366Z,1001.9
2017-07-10T13:16:32.157Z,1001.9
2017-07-10T13:19:04.003Z,1001.9
2017-07-10T13:21:35.768Z,1001.9
2017-07-10T13:24:07.506Z,1001.8
2017-07-10T13:26:39.338Z,1001.9
2017-07-10T13:29:11.064Z,1001.8
2017-07-10T13:31:42.843Z,1001.8
2017-07-10T13:34:14.628Z,1001.9
2017-07-10T13:36:46.415Z,1001.9
2017-07-10T13:39:18.164Z,1002.0
2017-07-10T13:41:49.984Z,1002.1
2017-07-10T13:44:21.738Z,1002.0
2017-07-10T13:46:53.504Z,1002.0
2017-07-10T13:49:25.303Z,1002.1
2017-07-10T13:51:57.091Z,1002.1
2017-07-10T13:54:28.828Z,1002.0
2017-07-10T13:57:00.633Z,1002.0
2017-07-10T13:59:32.375Z,1002.0
2017-07-10T14:02:04.205Z,1002.0
2017-07-10T14:04:35.983Z,1001.9
2017-07-10T14:07:07.801Z,1002.1
2017-07-10T14:09:39.627Z,1002.0
2017-07-10T14:12:11.428Z,1002.0
2017-07-10T14:14:43.158Z,1002.1
2017-07-10T14:17:14.953Z,1002.1
2017-07-10T14:19:46.741Z,1002.1
2017-07-10T14:22:18.514Z,1002.1
2017-07-10T14:24:50.239Z,1002.2
2017-07-10T14:27:22.044Z,1002.2
2017-07-10T14:29:53.785Z,1002.2
2017-07-10T14:32:25.568Z,1002.2
2017-07-10T14:34:57.333Z,1002.2
2017-07-10T14:37:29.107Z,1002.3
2017-07-10T14:40:00.834Z,1002.2
2017-07-10T14:42:32.655Z,1002.2
2017-07-10T14:45:04.390Z,1002.2
2017-07-10T14:47:36.182Z,1002.2
2017-07-10T14:50:07.994Z,1002.1
2017-07-10T14:52:40.486Z,1002.1
2017-07-10T14:55:12.229Z,1002.0
2017-07-10T14:57:44.026Z,1002.0
2017-07-10T15:00:15.791Z,1002.0
2017-07-10T15:02:47.575Z,1002.0
2017-07-10T15:05:19.406Z,1002.0
2017-07-10T15:07:51.234Z,1002.0
2017-07-10T15:10:23.005Z,1002.0
2017-07-10T15:12:54.850Z,1002.0
2017-07-10T15:15:26.623Z,1002.0
2017-07-10T15:17:58.393Z,1002.0
2017-07-10T15:20:30.200Z,1002.0
2017-07-10T15:23:01.978Z,1001.9
2017-07-10T15:25:33.733Z,1002.0
2017-07-10T15:28:05.673Z,1001.9
2017-07-10T15:30:38.116Z,1001.9
2017-07-10T15:33:09.910Z,1002.0
2017-07-10T15:35:43.117Z,1002.0
2017-07-10T15:38:15.104Z,1002.1
2017-07-10T15:40:47.505Z,1002.0
2017-07-10T15:43:20.298Z,1002.0
2017-07-10T15:45:53.105Z,1002.1
2017-07-10T15:48:24.872Z,1002.1
2017-07-10T15:50:57.003Z,1002.1
2017-07-10T15:53:28.810Z,1002.1
2017-07-10T15:56:00.653Z,1002.0
2017-07-10T15:58:33.440Z,1002.0
2017-07-10T16:01:05.361Z,1002.0
2017-07-10T16:03:37.143Z,1002.1
2017-07-10T16:06:08.921Z,1002.1
2017-07-10T16:08:40.751Z,1002.1
2017-07-10T16:11:12.502Z,1002.1
2017-07-10T16:13:44.317Z,1002.1
2017-07-10T16:16:16.172Z,1002.1
2017-07-10T16:18:47.944Z,1002.1
2017-07-10T16:21:19.679Z,1002.2
2017-07-10T16:23:51.508Z,1002.2
2017-07-10T16:26:23.313Z,1002.2
2017-07-10T16:28:55.077Z,1002.2
2017-07-10T16:31:26.902Z,1002.2
2017-07-10T16:33:58.782Z,1002.3
2017-07-10T16:36:30.596Z,1002.3
2017-07-10T16:39:02.495Z,1002.3
2017-07-10T16:41:34.295Z,1002.3
2017-07-10T16:44:06.137Z,1002.3
2017-07-10T16:46:37.895Z,1002.3
2017-07-10T16:49:09.704Z,1002.3
2017-07-10T16:51:41.466Z,1002.4
2017-07-10T16:54:13.313Z,1002.4
2017-07-10T16:56:46.355Z,1002.4
2017-07-10T16:59:18.967Z,1002.4
2017-07-10T17:01:51.773Z,1002.4
2017-07-10T17:04:23.568Z,1002.4
2017-07-10T17:06:55.492Z,1002.5
2017-07-10T17:09:27.271Z,1002.5
2017-07-10T17:11:59.099Z,1002.5
2017-07-10T17:14:30.872Z,1002.5
2017-07-10T17:17:05.561Z,1002.5
2017-07-10T17:19:37.466Z,1002.5
2017-07-10T17:22:09.179Z,1002.6
2017-07-10T17:24:41.063Z,1002.5
2017-07-10T17:27:12.865Z,1002.5
2017-07-10T17:29:45.919Z,1002.5
2017-07-10T17:32:17.717Z,1002.5
2017-07-10T17:34:49.674Z,1002.6
2017-07-10T17:37:22.634Z,1002.6
2017-07-10T17:39:55.317Z,1002.6
2017-07-10T17:42:27.443Z,1002.6
2017-07-10T17:45:05.088Z,1002.7
2017-07-10T17:47:38.024Z,1002.7
2017-07-10T17:50:12.312Z,1002.8
2017-07-10T17:52:44.543Z,1002.7
2017-07-10T17:55:23.409Z,1002.7
2017-07-10T17:57:55.500Z,1002.8
2017-07-10T18:00:27.255Z,1002.8
2017-07-10T18:03:00.291Z,1002.9
2017-07-10T18:05:34.641Z,1003.0
2017-07-10T18:08:06.436Z,1003.0
2017-07-10T18:10:38.707Z,1003.0
2017-07-10T18:13:11.691Z,1003.1
2017-07-10T18:15:45.730Z,1003.0
2017-07-10T18:18:17.474Z,1003.0
2017-07-10T18:20:49.392Z,1003.1
2017-07-10T18:23:21.260Z,1003.1
2017-07-10T18:25:53.059Z,1003.1
2017-07-10T18:28:25.088Z,1003.2
2017-07-10T18:30:57.023Z,1003.2
2017-07-10T18:33:29.801Z,1003.2
2017-07-10T18:36:01.611Z,1003.3
2017-07-10T18:38:33.397Z,1003.5
2017-07-10T18:41:05.268Z,1003.5
2017-07-10T18:43:37.065Z,1003.5
2017-07-10T18:46:09.297Z,1003.5
2017-07-10T18:48:41.158Z,1003.6
2017-07-10T18:51:13.014Z,1003.6
2017-07-10T18:53:44.762Z,1003.6
2017-07-10T18:56:16.815Z,1003.6
2017-07-10T18:58:48.545Z,1003.7
2017-07-10T19:01:20.352Z,1003.7
2017-07-10T19:03:52.169Z,1003.7
2017-07-10T19:06:24.725Z,1003.7
2017-07-10T19:08:58.295Z,1003.7
2017-07-10T19:11:30.216Z,1003.7
2017-07-10T19:14:02.021Z,1003.8
2017-07-10T19:16:33.852Z,1003.8
2017-07-10T19:19:05.635Z,1003.8
2017-07-10T19:21:37.393Z,1003.7
2017-07-10T19:24:10.306Z,1003.8
2017-07-10T19:26:42.129Z,1003.7
2017-07-10T19:29:13.869Z,1003.8
2017-07-10T19:31:45.627Z,1003.8
2017-07-10T19:34:17.343Z,1003.8
2017-07-10T19:36:49.127Z,1003.8
2017-07-10T19:39:20.891Z,1003.9
2017-07-10T19:41:53.088Z,1003.8
2017-07-10T19:44:25.856Z,1003.9
2017-07-10T19:46:57.950Z,1004.0
2017-07-10T19:49:29.670Z,1004.0
2017-07-10T19:52:01.432Z,1004.0
2017-07-10T19:54:33.187Z,1004.1
2017-07-10T19:57:04.928Z,1004.1
2017-07-10T19:59:36.659Z,1004.2
2017-07-10T20:02:08.398Z,1004.3
2017-07-10T20:04:40.154Z,1004.4
2017-07-10T20:07:11.927Z,1004.3
2017-07-10T20:09:43.659Z,1004.4
2017-07-10T20:12:15.427Z,1004.3
2017-07-10T20:14:47.159Z,1004.4
2017-07-10T20:17:18.929Z,1004.4
2017-07-10T20:19:50.666Z,1004.4
2017-07-10T20:22:23.747Z,1004.4
2017-07-10T20:24:55.523Z,1004.5
2017-07-10T20:27:27.369Z,1004.5
2017-07-10T20:29:59.089Z,1004.6
2017-07-10T20:32:30.867Z,1004.7
2017-07-10T20:35:02.585Z,1004.7
2017-07-10T20:37:34.352Z,1004.7
2017-07-10T20:40:06.082Z,1004.7
2017-07-10T20:42:37.854Z,1004.8
2017-07-10T20:45:09.587Z,1004.8
2017-07-10T20:47:41.386Z,1004.8
2017-07-10T20:50:13.129Z,1004.8
2017-07-10T20:52:44.908Z,1004.8
2017-07-10T20:55:16.630Z,1004.8
2017-07-10T20:57:48.411Z,1004.8
2017-07-10T21:00:20.134Z,1004.7
2017-07-10T21:02:51.864Z,1004.8
2017-07-10T21:05:23.586Z,1004.8
2017-07-10T21:07:55.376Z,1004.8
2017-07-10T21:10:27.653Z,1004.8
2017-07-10T21:12:59.413Z,1004.8
2017-07-10T21:15:31.148Z,1004.8
2017-07-10T21:18:02.910Z,1004.9
2017-07-10T21:20:34.665Z,1004.9
2017-07-10T21:23:06.452Z,1004.8
2017-07-10T21:25:38.187Z,1004.8
2017-07-10T21:28:09.956Z,1004.7
2017-07-10T21:30:41.710Z,1004.7
2017-07-10T21:33:13.441Z,1004.7
2017-07-10T21:35:45.137Z,1004.7
2017-07-10T21:38:16.920Z,1004.8
2017-07-10T21:40:48.615Z,1004.8
2017-07-10T21:43:20.346Z,1004.9
2017-07-10T21:45:52.076Z,1004.9
2017-07-10T21:48:23.851Z,1004.9
2017-07-10T21:50:55.605Z,1004.8
2017-07-10T21:53:27.425Z,1004.8
2017-07-10T21:55:59.167Z,1004.8
2017-07-10T21:58:30.935Z,1004.8
2017-07-10T22:01:02.711Z,1004.8
2017-07-10T22:03:34.480Z,1004.7
2017-07-10T22:06:06.222Z,1004.7
2017-07-10T22:08:38.759Z,1004.6
2017-07-10T22:11:10.488Z,1004.7
2017-07-10T22:13:42.246Z,1004.7
2017-07-10T22:16:14.003Z,1004.7
2017-07-10T22:18:45.794Z,1004.7
2017-07-10T22:21:17.520Z,1004.8
2017-07-10T22:23:49.305Z,1004.7
2017-07-10T22:26:21.036Z,1004.7
2017-07-10T22:28:52.802Z,1004.8
2017-07-10T22:31:24.530Z,1004.8
2017-07-10T22:33:56.280Z,1004.8
2017-07-10T22:36:27.967Z,1004.8
2017-07-10T22:38:59.735Z,1004.8
2017-07-10T22:41:31.425Z,1004.8
2017-07-10T22:44:03.152Z,1004.8
2017-07-10T22:46:34.916Z,1004.7
2017-07-10T22:49:06.671Z,1004.8
2017-07-10T22:51:38.418Z,1004.7
2017-07-10T22:54:10.186Z,1004.7
2017-07-10T22:56:41.910Z,1004.8
2017-07-10T22:59:13.675Z,1004.8
2017-07-10T23:01:45.453Z,1004.8
2017-07-10T23:04:17.202Z,1004.8
2017-07-10T23:06:48.942Z,1004.8
2017-07-10T23:09:20.763Z,1004.7
2017-07-10T23:11:52.490Z,1004.7
2017-07-10T23:14:24.261Z,1004.7
2017-07-10T23:16:55.979Z,1004.7
2017-07-10T23:19:27.747Z,1004.7
2017-07-10T23:21:59.482Z,1004.7
2017-07-10T23:24:31.246Z,1004.8
2017-07-10T23:27:02.976Z,1004.8
2017-07-10T23:29:34.753Z,1004.7
2017-07-10T23:32:06.448Z,1004.8
2017-07-10T23:34:38.189Z,1004.7
2017-07-10T23:37:09.884Z,1004.7
2017-07-10T23:39:41.631Z,1004.8
2017-07-10T23:42:13.324Z,1004.8
2017-07-10T23:44:45.049Z,1004.8
2017-07-10T23:47:16.777Z,1004.8
2017-07-10T23:49:48.521Z,1004.8
2017-07-10T23:52:20.254Z,1004.8
2017-07-10T23:54:51.995Z,1004.8
2017-07-10T23:57:23.749Z,1004.9
2017-07-10T23:59:55.575Z,1004.8
